Time;durP1;ratioP1;P1;durP2;ratioP2;P2;SDS_P1;SDS_P2;PMS_P1;PMS_P2;Temp;Humidity;BMP_temperature;BMP_pressure;BME280_temperature;BME280_humidity;BME280_pressure;Samples;Min_cycle;Max_cycle;Signal;HPM_P1;HPM_P2
2021/03/06 00:02:16;;;;;;;15.75;8.18;;;;;;;;;;5047303;28;20033;-44
2021/03/06 00:04:42;;;;;;;13.25;7.47;;;;;;;;;;5050639;28;20044;-44
2021/03/06 00:07:08;;;;;;;15.18;7.10;;;;;;;;;;5041417;28;20087;-45
2021/03/06 00:09:36;;;;;;;15.98;8.30;;;;;;;;;;5042692;28;20033;-44
2021/03/06 00:12:02;;;;;;;16.10;7.60;;;;;;;;;;5046002;28;20030;-44
2021/03/06 00:14:28;;;;;;;15.57;7.50;;;;;;;;;;5035023;28;20040;-44
2021/03/06 00:16:54;;;;;;;14.85;7.35;;;;;;;;;;5050791;28;20361;-44
2021/03/06 00:19:20;;;;;;;12.80;7.07;;;;;;;;;;5054473;28;20036;-44
2021/03/06 00:21:46;;;;;;;10.88;6.63;;;;;;;;;;5034614;28;20112;-44
2021/03/06 00:24:11;;;;;;;13.05;7.03;;;;;;;;;;5038736;28;20037;-44
2021/03/06 00:26:37;;;;;;;13.63;6.75;;;;;;;;;;5039227;28;20036;-44
2021/03/06 00:29:04;;;;;;;11.88;7.40;;;;;;;;;;5040862;28;20100;-44
2021/03/06 00:31:30;;;;;;;16.85;7.32;;;;;;;;;;5041298;28;20170;-44
2021/03/06 00:33:56;;;;;;;14.00;7.25;;;;;;;;;;5041001;28;20116;-44
2021/03/06 00:36:22;;;;;;;9.82;5.78;;;;;;;;;;5034529;28;20040;-44
2021/03/06 00:38:48;;;;;;;11.68;6.93;;;;;;;;;;5038794;28;20099;-43
2021/03/06 00:41:14;;;;;;;13.30;6.25;;;;;;;;;;5049737;28;20087;-44
2021/03/06 00:43:40;;;;;;;13.85;6.22;;;;;;;;;;5046385;28;20125;-45
2021/03/06 00:46:06;;;;;;;9.63;5.75;;;;;;;;;;5053487;28;20438;-44
2021/03/06 00:48:32;;;;;;;12.05;6.05;;;;;;;;;;5033637;28;20049;-45
2021/03/06 00:50:58;;;;;;;11.98;5.72;;;;;;;;;;5042668;28;20116;-44
2021/03/06 00:53:24;;;;;;;11.82;5.72;;;;;;;;;;5038297;28;20027;-45
2021/03/06 00:55:50;;;;;;;12.27;6.20;;;;;;;;;;5043038;28;20037;-44
2021/03/06 00:58:16;;;;;;;12.68;5.95;;;;;;;;;;5040487;28;20037;-44
2021/03/06 01:00:42;;;;;;;11.80;6.05;;;;;;;;;;5034700;28;20454;-44
2021/03/06 01:03:08;;;;;;;9.73;5.35;;;;;;;;;;5045468;28;20381;-44
2021/03/06 01:05:34;;;;;;;11.13;5.95;;;;;;;;;;5037153;28;20034;-46
2021/03/06 01:08:00;;;;;;;10.40;5.65;;;;;;;;;;5035505;28;20043;-44
2021/03/06 01:10:31;;;;;;;11.38;5.97;;;;;;;;;;5052518;28;20027;-44
2021/03/06 01:12:57;;;;;;;9.35;6.10;;;;;;;;;;5042490;28;20083;-44
2021/03/06 01:15:23;;;;;;;9.43;5.95;;;;;;;;;;5041973;28;20037;-44
2021/03/06 01:17:49;;;;;;;11.82;6.60;;;;;;;;;;5051938;28;20040;-44
2021/03/06 01:20:15;;;;;;;11.07;5.95;;;;;;;;;;5048125;28;20029;-44
2021/03/06 01:22:42;;;;;;;10.18;5.82;;;;;;;;;;5039920;28;20465;-44
2021/03/06 01:25:08;;;;;;;11.45;6.25;;;;;;;;;;5052571;28;20112;-44
2021/03/06 01:27:34;;;;;;;9.82;6.10;;;;;;;;;;5050523;28;20477;-45
2021/03/06 01:30:00;;;;;;;14.30;6.38;;;;;;;;;;5034939;28;20125;-44
2021/03/06 01:32:26;;;;;;;14.55;6.25;;;;;;;;;;5046722;28;20037;-44
2021/03/06 01:34:52;;;;;;;15.57;6.55;;;;;;;;;;5033495;28;20033;-46
2021/03/06 01:37:18;;;;;;;17.70;6.40;;;;;;;;;;5046799;28;20029;-44
2021/03/06 01:39:44;;;;;;;13.52;5.95;;;;;;;;;;5037639;28;20029;-44
2021/03/06 01:42:10;;;;;;;13.10;6.07;;;;;;;;;;5049933;28;20033;-44
2021/03/06 01:44:36;;;;;;;10.02;5.85;;;;;;;;;;5046218;28;20462;-44
2021/03/06 01:47:02;;;;;;;10.38;5.75;;;;;;;;;;5033880;28;20025;-44
2021/03/06 01:49:29;;;;;;;11.95;5.75;;;;;;;;;;5048886;28;20032;-44
2021/03/06 01:51:58;;;;;;;10.20;5.50;;;;;;;;;;5036506;28;20033;-44
2021/03/06 01:54:26;;;;;;;14.10;6.70;;;;;;;;;;5034372;28;20044;-44
2021/03/06 01:56:52;;;;;;;11.85;5.50;;;;;;;;;;5035227;28;20392;-44
2021/03/06 01:59:18;;;;;;;10.30;4.93;;;;;;;;;;5041501;28;20033;-44
2021/03/06 02:01:45;;;;;;;10.77;5.93;;;;;;;;;;5044006;28;20028;-46
2021/03/06 02:04:11;;;;;;;12.02;5.65;;;;;;;;;;5041706;28;20453;-47
2021/03/06 02:06:37;;;;;;;7.55;4.80;;;;;;;;;;5036298;28;20057;-46
2021/03/06 02:09:03;;;;;;;9.98;4.90;;;;;;;;;;5052796;28;20039;-45
2021/03/06 02:11:38;;;;;;;8.48;4.63;;;;;;;;;;5037424;28;20017;-47
2021/03/06 02:14:03;;;;;;;8.73;5.15;;;;;;;;;;5039345;28;20029;-45
2021/03/06 02:16:42;;;;;;;9.63;4.60;;;;;;;;;;5045307;28;20051;-45
2021/03/06 02:19:27;;;;;;;7.40;4.65;;;;;;;;;;5040258;28;20032;-46
2021/03/06 02:22:12;;;;;;;8.10;4.10;;;;;;;;;;5049555;28;20365;-47
2021/03/06 02:24:49;;;;;;;8.05;4.75;;;;;;;;;;5038961;28;20029;-45
2021/03/06 02:27:21;;;;;;;9.02;4.38;;;;;;;;;;5040765;28;20021;-45
2021/03/06 02:29:51;;;;;;;8.63;4.57;;;;;;;;;;5032909;28;20071;-45
2021/03/06 02:32:24;;;;;;;9.75;4.20;;;;;;;;;;5044510;28;20453;-45
2021/03/06 02:34:52;;;;;;;8.35;4.50;;;;;;;;;;5047650;28;20488;-45
2021/03/06 02:37:21;;;;;;;8.05;4.10;;;;;;;;;;5038988;28;20025;-45
2021/03/06 02:39:49;;;;;;;8.30;4.40;;;;;;;;;;5052380;28;20048;-47
2021/03/06 02:42:17;;;;;;;11.75;5.13;;;;;;;;;;5036366;28;20129;-46
2021/03/06 02:44:43;;;;;;;8.43;3.90;;;;;;;;;;5043362;28;20088;-45
2021/03/06 02:47:09;;;;;;;7.97;4.18;;;;;;;;;;5052463;28;20029;-45
2021/03/06 02:49:35;;;;;;;6.07;3.70;;;;;;;;;;5049664;28;20033;-46
2021/03/06 02:52:01;;;;;;;8.45;4.13;;;;;;;;;;5038059;28;20100;-45
2021/03/06 02:54:28;;;;;;;9.20;4.45;;;;;;;;;;5034717;28;20473;-45
2021/03/06 02:56:54;;;;;;;8.00;4.43;;;;;;;;;;5032756;28;20132;-45
2021/03/06 02:59:20;;;;;;;8.70;3.97;;;;;;;;;;5046161;28;20124;-47
2021/03/06 03:01:55;;;;;;;9.45;4.38;;;;;;;;;;5036691;28;20025;-45
2021/03/06 03:04:27;;;;;;;7.47;4.03;;;;;;;;;;5033201;28;20022;-46
2021/03/06 03:06:56;;;;;;;11.13;3.90;;;;;;;;;;5043973;28;20021;-45
2021/03/06 03:09:25;;;;;;;8.13;3.65;;;;;;;;;;5043843;28;20069;-45
2021/03/06 03:12:02;;;;;;;7.78;3.88;;;;;;;;;;5037926;28;20473;-45
2021/03/06 03:14:30;;;;;;;7.72;3.80;;;;;;;;;;5036130;28;20442;-45
2021/03/06 03:17:01;;;;;;;11.82;5.45;;;;;;;;;;5055370;28;20136;-45
2021/03/06 03:19:35;;;;;;;6.35;3.95;;;;;;;;;;5055014;28;20464;-45
2021/03/06 03:22:02;;;;;;;6.18;3.45;;;;;;;;;;5041329;28;20389;-45
2021/03/06 03:24:31;;;;;;;7.03;3.50;;;;;;;;;;5048798;28;20118;-45
2021/03/06 03:26:57;;;;;;;7.65;3.45;;;;;;;;;;5035863;28;20068;-44
2021/03/06 03:29:24;;;;;;;8.40;3.45;;;;;;;;;;5036394;28;20033;-45
2021/03/06 03:31:51;;;;;;;6.88;3.80;;;;;;;;;;5055653;28;20037;-45
2021/03/06 03:34:21;;;;;;;7.20;3.80;;;;;;;;;;5041043;28;20041;-46
2021/03/06 03:36:48;;;;;;;7.28;4.40;;;;;;;;;;5055001;28;20056;-46
2021/03/06 03:39:14;;;;;;;7.03;3.65;;;;;;;;;;5054996;28;20580;-48
2021/03/06 03:41:40;;;;;;;6.95;3.50;;;;;;;;;;5049355;28;20032;-47
2021/03/06 03:44:07;;;;;;;6.15;3.33;;;;;;;;;;5036799;28;20076;-51
2021/03/06 03:46:34;;;;;;;10.30;4.03;;;;;;;;;;5055228;28;20033;-45
2021/03/06 03:49:02;;;;;;;5.93;3.65;;;;;;;;;;5055414;28;20021;-46
2021/03/06 03:51:28;;;;;;;7.72;3.40;;;;;;;;;;5054554;28;20250;-45
2021/03/06 03:53:54;;;;;;;5.32;3.05;;;;;;;;;;5041361;28;20070;-44
2021/03/06 03:56:20;;;;;;;9.00;3.22;;;;;;;;;;5047147;28;20037;-46
2021/03/06 03:58:47;;;;;;;7.05;3.45;;;;;;;;;;5050290;28;20051;-45
2021/03/06 04:01:13;;;;;;;11.05;3.58;;;;;;;;;;5052214;28;20536;-45
2021/03/06 04:03:39;;;;;;;6.90;3.60;;;;;;;;;;5036008;28;20066;-47
2021/03/06 04:06:05;;;;;;;6.60;3.80;;;;;;;;;;5040433;28;20033;-45
2021/03/06 04:08:31;;;;;;;5.13;3.05;;;;;;;;;;5048197;28;20140;-45
2021/03/06 04:10:57;;;;;;;8.43;3.60;;;;;;;;;;5038233;28;20489;-45
2021/03/06 04:13:23;;;;;;;7.03;3.30;;;;;;;;;;5034787;28;20025;-45
2021/03/06 04:15:49;;;;;;;7.07;3.47;;;;;;;;;;5046238;28;20032;-45
2021/03/06 04:18:15;;;;;;;6.93;3.65;;;;;;;;;;5040099;28;20037;-44
2021/03/06 04:20:41;;;;;;;8.95;3.50;;;;;;;;;;5046211;28;20028;-45
2021/03/06 04:23:07;;;;;;;6.32;3.33;;;;;;;;;;5036300;28;20105;-47
2021/03/06 04:25:33;;;;;;;5.65;3.15;;;;;;;;;;5034476;28;20025;-48
2021/03/06 04:27:59;;;;;;;7.22;3.50;;;;;;;;;;5034424;28;20045;-48
2021/03/06 04:30:26;;;;;;;6.18;3.70;;;;;;;;;;5034616;28;20026;-47
2021/03/06 04:32:52;;;;;;;7.32;3.33;;;;;;;;;;5034502;28;20064;-45
2021/03/06 04:35:18;;;;;;;6.13;2.95;;;;;;;;;;5044366;28;20436;-49
2021/03/06 04:37:45;;;;;;;8.23;3.60;;;;;;;;;;5040037;28;20485;-45
2021/03/06 04:40:12;;;;;;;6.53;3.63;;;;;;;;;;5053036;28;20028;-47
2021/03/06 04:42:39;;;;;;;7.93;3.47;;;;;;;;;;5054307;28;20079;-45
2021/03/06 04:45:05;;;;;;;8.20;3.75;;;;;;;;;;5039415;28;20104;-45
2021/03/06 04:47:31;;;;;;;8.50;3.30;;;;;;;;;;5054098;28;20025;-45
2021/03/06 04:49:57;;;;;;;5.25;3.50;;;;;;;;;;5052380;28;20457;-45
2021/03/06 04:52:23;;;;;;;5.65;3.38;;;;;;;;;;5047192;28;20022;-45
2021/03/06 04:54:50;;;;;;;8.68;3.55;;;;;;;;;;5033780;28;20374;-45
2021/03/06 04:57:16;;;;;;;7.55;3.70;;;;;;;;;;5034366;28;20152;-45
2021/03/06 04:59:42;;;;;;;11.82;3.70;;;;;;;;;;5054153;28;20108;-45
2021/03/06 05:02:08;;;;;;;8.77;3.80;;;;;;;;;;5035306;28;20530;-46
2021/03/06 05:04:34;;;;;;;6.55;3.40;;;;;;;;;;5033483;28;20092;-46
2021/03/06 05:07:00;;;;;;;8.00;3.70;;;;;;;;;;5040897;28;20030;-45
2021/03/06 05:09:26;;;;;;;7.65;4.10;;;;;;;;;;5033493;28;20049;-45
2021/03/06 05:11:52;;;;;;;9.35;4.03;;;;;;;;;;5033710;28;20095;-45
2021/03/06 05:14:18;;;;;;;6.15;3.25;;;;;;;;;;5034749;28;20029;-46
2021/03/06 05:16:44;;;;;;;8.15;3.60;;;;;;;;;;5034196;28;20025;-46
2021/03/06 05:19:10;;;;;;;5.57;2.97;;;;;;;;;;5046392;28;20040;-48
2021/03/06 05:21:37;;;;;;;7.25;3.38;;;;;;;;;;5034796;28;20032;-45
2021/03/06 05:24:06;;;;;;;6.07;3.40;;;;;;;;;;5037611;28;20404;-45
2021/03/06 05:26:33;;;;;;;7.38;3.17;;;;;;;;;;5040020;28;20103;-46
2021/03/06 05:28:59;;;;;;;5.55;3.58;;;;;;;;;;5043325;28;20060;-45
2021/03/06 05:31:25;;;;;;;11.25;3.72;;;;;;;;;;5032985;28;20029;-45
2021/03/06 05:33:51;;;;;;;5.90;3.00;;;;;;;;;;5044061;28;20036;-45
2021/03/06 05:36:17;;;;;;;6.45;3.60;;;;;;;;;;5045015;28;20029;-45
2021/03/06 05:38:43;;;;;;;6.07;3.38;;;;;;;;;;5046575;28;20120;-45
2021/03/06 05:41:09;;;;;;;5.97;3.22;;;;;;;;;;5035850;28;20572;-45
2021/03/06 05:43:35;;;;;;;5.97;3.88;;;;;;;;;;5044668;28;20048;-45
2021/03/06 05:46:01;;;;;;;8.25;3.80;;;;;;;;;;5047822;28;20037;-45
2021/03/06 05:48:28;;;;;;;6.85;3.80;;;;;;;;;;5031777;28;20030;-48
2021/03/06 05:50:54;;;;;;;8.57;3.97;;;;;;;;;;5046892;28;20022;-46
2021/03/06 05:53:21;;;;;;;9.93;4.05;;;;;;;;;;5050414;28;20146;-45
2021/03/06 05:55:49;;;;;;;8.35;3.65;;;;;;;;;;5050202;28;20033;-45
2021/03/06 05:58:16;;;;;;;6.88;3.70;;;;;;;;;;5050894;28;20053;-45
2021/03/06 06:00:42;;;;;;;7.35;3.65;;;;;;;;;;5039675;28;20025;-45
2021/03/06 06:03:09;;;;;;;12.05;6.35;;;;;;;;;;5033452;28;20529;-46
2021/03/06 06:05:35;;;;;;;12.73;6.53;;;;;;;;;;5047570;28;20469;-46
2021/03/06 06:08:02;;;;;;;9.95;4.70;;;;;;;;;;5046513;28;20381;-47
2021/03/06 06:10:30;;;;;;;9.48;4.32;;;;;;;;;;5050924;28;20064;-45
2021/03/06 06:12:56;;;;;;;8.63;4.13;;;;;;;;;;5049242;28;20029;-48
2021/03/06 06:15:22;;;;;;;8.75;4.00;;;;;;;;;;5045864;28;20115;-45
2021/03/06 06:17:48;;;;;;;11.07;4.07;;;;;;;;;;5039526;28;20033;-47
2021/03/06 06:20:18;;;;;;;8.75;4.20;;;;;;;;;;5052602;28;20036;-45
2021/03/06 06:22:44;;;;;;;16.42;5.22;;;;;;;;;;5040386;28;20052;-48
2021/03/06 06:25:10;;;;;;;10.60;4.95;;;;;;;;;;5034001;28;20033;-45
2021/03/06 06:27:36;;;;;;;9.23;4.68;;;;;;;;;;5047889;28;20132;-45
2021/03/06 06:30:11;;;;;;;6.32;3.67;;;;;;;;;;5045113;28;20535;-45
2021/03/06 06:32:44;;;;;;;12.48;4.43;;;;;;;;;;5041264;28;20116;-45
2021/03/06 06:35:11;;;;;;;7.22;3.58;;;;;;;;;;5047888;28;20025;-45
2021/03/06 06:37:37;;;;;;;8.27;3.38;;;;;;;;;;5042320;28;20047;-45
2021/03/06 06:40:20;;;;;;;6.88;3.50;;;;;;;;;;5049813;28;20637;-45
2021/03/06 06:42:46;;;;;;;9.15;3.60;;;;;;;;;;5032394;28;20030;-45
2021/03/06 06:45:13;;;;;;;8.18;3.38;;;;;;;;;;5035779;28;20492;-45
2021/03/06 06:47:40;;;;;;;7.35;3.45;;;;;;;;;;5038586;28;20036;-45
2021/03/06 06:50:07;;;;;;;8.57;3.13;;;;;;;;;;5056536;28;20037;-46
2021/03/06 06:52:44;;;;;;;9.65;3.67;;;;;;;;;;5043943;28;20461;-44
2021/03/06 06:55:11;;;;;;;6.32;3.25;;;;;;;;;;5041914;28;20025;-45
2021/03/06 06:57:47;;;;;;;10.02;3.40;;;;;;;;;;5040003;28;20469;-45
2021/03/06 07:00:13;;;;;;;6.10;3.60;;;;;;;;;;5048100;28;20017;-45
2021/03/06 07:02:50;;;;;;;9.25;3.08;;;;;;;;;;5037753;28;20568;-45
2021/03/06 07:05:25;;;;;;;10.30;3.55;;;;;;;;;;5043929;28;20120;-45
2021/03/06 07:07:51;;;;;;;10.80;3.92;;;;;;;;;;5035803;28;20121;-45
2021/03/06 07:10:17;;;;;;;12.52;3.67;;;;;;;;;;5051738;28;20087;-45
2021/03/06 07:12:46;;;;;;;8.23;3.20;;;;;;;;;;5052315;28;20036;-45
2021/03/06 07:15:13;;;;;;;8.00;3.55;;;;;;;;;;5053300;28;20029;-45
2021/03/06 07:17:41;;;;;;;7.22;3.10;;;;;;;;;;5039680;28;20037;-45
2021/03/06 07:20:08;;;;;;;8.35;3.67;;;;;;;;;;5040327;28;20061;-45
2021/03/06 07:22:34;;;;;;;8.65;3.20;;;;;;;;;;5047944;28;20067;-48
2021/03/06 07:25:01;;;;;;;7.50;2.88;;;;;;;;;;5042411;28;20112;-47
2021/03/06 07:27:27;;;;;;;8.82;3.47;;;;;;;;;;5038257;28;20038;-48
2021/03/06 07:29:53;;;;;;;9.90;3.50;;;;;;;;;;5043469;28;20083;-45
2021/03/06 07:32:20;;;;;;;8.82;3.20;;;;;;;;;;5038925;28;20029;-45
2021/03/06 07:34:49;;;;;;;6.60;3.20;;;;;;;;;;5040857;28;20021;-49
2021/03/06 07:37:15;;;;;;;8.13;3.25;;;;;;;;;;5045261;28;20037;-45
2021/03/06 07:39:48;;;;;;;8.35;3.33;;;;;;;;;;5051450;28;20033;-45
2021/03/06 07:42:20;;;;;;;15.23;3.97;;;;;;;;;;5048390;28;20163;-45
2021/03/06 07:44:47;;;;;;;8.90;3.25;;;;;;;;;;5035406;28;20112;-46
2021/03/06 07:47:14;;;;;;;12.25;3.60;;;;;;;;;;5035191;28;20032;-45
2021/03/06 07:49:41;;;;;;;5.80;3.30;;;;;;;;;;5041313;28;20032;-45
2021/03/06 07:52:08;;;;;;;11.20;3.67;;;;;;;;;;5048473;28;20104;-46
2021/03/06 07:54:36;;;;;;;13.75;4.30;;;;;;;;;;5052907;28;20036;-45
2021/03/06 07:57:02;;;;;;;8.18;3.53;;;;;;;;;;5040863;28;20044;-45
2021/03/06 07:59:47;;;;;;;7.40;3.22;;;;;;;;;;5048459;28;20484;-45
2021/03/06 08:02:32;;;;;;;11.25;3.75;;;;;;;;;;5050981;28;20108;-45
2021/03/06 08:04:58;;;;;;;11.05;3.90;;;;;;;;;;5038181;28;20022;-45
2021/03/06 08:07:56;;;;;;;9.27;3.45;;;;;;;;;;5038641;28;20017;-46
2021/03/06 08:10:22;;;;;;;9.55;3.50;;;;;;;;;;5036978;28;20057;-45
2021/03/06 08:12:48;;;;;;;10.43;3.33;;;;;;;;;;5043570;28;20041;-45
2021/03/06 08:15:35;;;;;;;12.27;3.55;;;;;;;;;;5047210;28;20021;-45
2021/03/06 08:18:01;;;;;;;9.88;3.45;;;;;;;;;;5035727;28;21613;-45
2021/03/06 08:20:31;;;;;;;11.65;3.42;;;;;;;;;;5034575;28;20099;-45
2021/03/06 08:23:18;;;;;;;9.52;3.42;;;;;;;;;;5040519;28;20420;-45
2021/03/06 08:25:44;;;;;;;5.20;2.85;;;;;;;;;;5050542;28;20044;-45
2021/03/06 08:28:28;;;;;;;8.35;3.15;;;;;;;;;;5037412;28;20069;-45
2021/03/06 08:30:55;;;;;;;9.70;3.20;;;;;;;;;;5040644;28;20377;-44
2021/03/06 08:33:21;;;;;;;7.03;3.40;;;;;;;;;;5040523;28;20052;-45
2021/03/06 08:35:47;;;;;;;10.88;3.58;;;;;;;;;;5036959;28;20061;-45
2021/03/06 08:38:26;;;;;;;13.07;3.72;;;;;;;;;;5035853;28;20409;-45
2021/03/06 08:40:53;;;;;;;6.63;3.10;;;;;;;;;;5041819;28;20457;-45
2021/03/06 08:43:19;;;;;;;13.80;3.28;;;;;;;;;;5043001;28;20029;-45
2021/03/06 08:45:45;;;;;;;8.48;2.90;;;;;;;;;;5043127;28;20096;-45
2021/03/06 08:48:12;;;;;;;5.38;2.55;;;;;;;;;;5042974;28;20036;-45
2021/03/06 08:50:38;;;;;;;9.07;2.55;;;;;;;;;;5047561;28;20040;-45
2021/03/06 08:53:14;;;;;;;6.97;2.75;;;;;;;;;;5042645;28;20026;-46
2021/03/06 08:55:41;;;;;;;6.32;2.83;;;;;;;;;;5042350;28;20056;-45
2021/03/06 08:58:08;;;;;;;12.10;2.53;;;;;;;;;;5044799;28;20033;-45
2021/03/06 09:00:35;;;;;;;6.18;2.28;;;;;;;;;;5037996;28;20029;-46
2021/03/06 09:03:13;;;;;;;9.40;2.45;;;;;;;;;;5033892;28;20075;-45
2021/03/06 09:05:40;;;;;;;8.55;2.58;;;;;;;;;;5045851;28;20040;-46
2021/03/06 09:08:06;;;;;;;8.73;2.83;;;;;;;;;;5041854;28;20441;-46
2021/03/06 09:10:40;;;;;;;3.88;2.10;;;;;;;;;;5040972;28;20361;-47
2021/03/06 09:13:06;;;;;;;;;;;;;;;;;;5042983;28;20052;-45
2021/03/06 09:15:39;;;;;;;15.63;2.65;;;;;;;;;;5041795;28;19938;-46
2021/03/06 09:18:06;;;;;;;9.57;2.35;;;;;;;;;;5046512;28;20033;-45
2021/03/06 09:20:37;;;;;;;7.90;2.13;;;;;;;;;;5050511;28;20037;-45
2021/03/06 09:23:03;;;;;;;6.20;2.55;;;;;;;;;;5040743;28;20026;-47
2021/03/06 09:25:30;;;;;;;7.60;2.28;;;;;;;;;;5041840;28;20132;-47
2021/03/06 09:27:57;;;;;;;12.95;2.30;;;;;;;;;;5032785;28;20068;-45
2021/03/06 09:30:24;;;;;;;6.03;2.00;;;;;;;;;;5037052;28;20589;-45
2021/03/06 09:32:50;;;;;;;7.50;2.70;;;;;;;;;;5041945;28;20063;-46
2021/03/06 09:35:17;;;;;;;18.65;2.83;;;;;;;;;;5038715;28;20108;-45
2021/03/06 09:37:43;;;;;;;9.07;2.40;;;;;;;;;;5041662;28;20045;-45
2021/03/06 09:40:16;;;;;;;9.07;2.38;;;;;;;;;;5047618;28;20017;-45
2021/03/06 09:42:42;;;;;;;5.80;2.03;;;;;;;;;;5048086;28;20027;-45
2021/03/06 09:45:08;;;;;;;6.45;2.30;;;;;;;;;;5049205;28;20032;-45
2021/03/06 09:47:35;;;;;;;3.05;1.52;;;;;;;;;;5048254;28;20057;-45
2021/03/06 09:50:01;;;;;;;8.55;2.03;;;;;;;;;;5049041;28;20354;-45
2021/03/06 09:52:33;;;;;;;11.70;2.15;;;;;;;;;;5048734;28;20077;-45
2021/03/06 09:54:59;;;;;;;7.95;2.33;;;;;;;;;;5043890;28;20032;-47
2021/03/06 09:57:26;;;;;;;6.85;2.40;;;;;;;;;;5038576;28;20436;-46
2021/03/06 09:59:52;;;;;;;7.18;2.20;;;;;;;;;;5040246;28;20032;-46
2021/03/06 10:02:22;;;;;;;10.82;2.78;;;;;;;;;;5037507;28;20022;-45
2021/03/06 10:04:49;;;;;;;7.63;2.28;;;;;;;;;;5048983;28;20029;-47
2021/03/06 10:07:15;;;;;;;9.05;2.28;;;;;;;;;;5047393;28;20048;-46
2021/03/06 10:09:42;;;;;;;7.20;2.28;;;;;;;;;;5050772;28;20108;-48
2021/03/06 10:12:09;;;;;;;3.97;2.00;;;;;;;;;;5045758;28;20033;-48
2021/03/06 10:14:35;;;;;;;4.70;1.90;;;;;;;;;;5046618;28;20369;-46
2021/03/06 10:17:02;;;;;;;6.70;2.60;;;;;;;;;;5038873;28;20060;-46
2021/03/06 10:19:29;;;;;;;5.45;1.55;;;;;;;;;;5036616;28;20017;-46
2021/03/06 10:22:00;;;;;;;6.43;2.00;;;;;;;;;;5046642;28;20033;-45
2021/03/06 10:24:26;;;;;;;11.48;2.55;;;;;;;;;;5039060;28;20037;-45
2021/03/06 10:26:59;;;;;;;8.23;2.13;;;;;;;;;;5045860;28;20116;-46
2021/03/06 10:29:26;;;;;;;8.88;1.80;;;;;;;;;;5059432;28;20127;-45
2021/03/06 10:32:02;;;;;;;7.43;1.98;;;;;;;;;;5053460;28;20043;-45
2021/03/06 10:34:28;;;;;;;9.85;2.33;;;;;;;;;;5044900;28;20033;-46
2021/03/06 10:37:13;;;;;;;6.90;2.25;;;;;;;;;;5039866;28;20159;-45
2021/03/06 10:39:56;;;;;;;4.10;2.00;;;;;;;;;;5039543;28;20036;-46
2021/03/06 10:42:23;;;;;;;5.93;2.43;;;;;;;;;;5051426;28;20028;-46
2021/03/06 10:44:49;;;;;;;8.05;1.95;;;;;;;;;;5055250;28;20037;-45
2021/03/06 10:47:15;;;;;;;6.93;2.15;;;;;;;;;;5045023;28;20416;-46
2021/03/06 10:49:42;;;;;;;6.45;2.10;;;;;;;;;;5046934;28;20116;-47
2021/03/06 10:52:22;;;;;;;5.72;2.20;;;;;;;;;;5039194;28;20048;-45
2021/03/06 10:54:49;;;;;;;13.35;2.45;;;;;;;;;;5059034;28;20481;-46
2021/03/06 10:57:15;;;;;;;7.60;2.50;;;;;;;;;;5050980;28;20377;-45
2021/03/06 10:59:41;;;;;;;8.00;2.30;;;;;;;;;;5056725;28;20033;-45
2021/03/06 11:02:07;;;;;;;6.25;2.55;;;;;;;;;;5045995;28;20021;-46
2021/03/06 11:04:34;;;;;;;7.40;2.63;;;;;;;;;;5046903;28;20030;-46
2021/03/06 11:07:01;;;;;;;6.68;2.88;;;;;;;;;;5045164;28;20033;-46
2021/03/06 11:09:29;;;;;;;8.98;3.47;;;;;;;;;;5041925;28;20478;-46
2021/03/06 11:11:55;;;;;;;4.57;2.63;;;;;;;;;;5044050;28;20022;-45
2021/03/06 11:14:25;;;;;;;8.63;3.50;;;;;;;;;;5048120;28;20044;-45
2021/03/06 11:16:51;;;;;;;11.65;4.40;;;;;;;;;;5044536;28;20045;-45
2021/03/06 11:19:17;;;;;;;15.90;3.40;;;;;;;;;;5038778;28;20018;-45
2021/03/06 11:21:43;;;;;;;7.78;3.58;;;;;;;;;;5055000;28;20044;-46
2021/03/06 11:24:10;;;;;;;9.95;2.97;;;;;;;;;;5051159;28;20617;-46
2021/03/06 11:26:37;;;;;;;8.60;3.55;;;;;;;;;;5057188;28;20112;-45
2021/03/06 11:29:04;;;;;;;8.63;3.97;;;;;;;;;;5057536;28;20098;-46
2021/03/06 11:31:32;;;;;;;9.40;3.47;;;;;;;;;;5054561;28;20041;-45
2021/03/06 11:33:58;;;;;;;6.85;3.58;;;;;;;;;;5054856;28;20037;-45
2021/03/06 11:36:23;;;;;;;12.98;3.92;;;;;;;;;;5041453;28;20032;-46
2021/03/06 11:38:50;;;;;;;10.35;3.53;;;;;;;;;;5053884;28;20091;-45
2021/03/06 11:41:16;;;;;;;12.68;3.70;;;;;;;;;;5040491;28;20032;-45
2021/03/06 11:43:43;;;;;;;9.10;3.50;;;;;;;;;;5045618;28;20640;-45
2021/03/06 11:46:09;;;;;;;9.95;3.65;;;;;;;;;;5040146;28;20450;-45
2021/03/06 11:48:35;;;;;;;9.05;3.22;;;;;;;;;;5041856;28;20469;-45
2021/03/06 11:51:01;;;;;;;12.13;3.25;;;;;;;;;;5049157;28;20037;-45
2021/03/06 11:53:27;;;;;;;7.75;3.60;;;;;;;;;;5045617;28;20113;-45
2021/03/06 11:55:53;;;;;;;4.53;2.92;;;;;;;;;;5040832;28;20029;-45
2021/03/06 11:58:19;;;;;;;13.07;3.95;;;;;;;;;;5051295;28;20048;-45
2021/03/06 12:00:45;;;;;;;7.25;3.65;;;;;;;;;;5049921;28;20048;-45
2021/03/06 12:03:11;;;;;;;13.55;3.97;;;;;;;;;;5050387;28;20056;-45
2021/03/06 12:05:37;;;;;;;9.18;3.55;;;;;;;;;;5041697;28;20021;-45
2021/03/06 12:08:03;;;;;;;14.35;3.65;;;;;;;;;;5044657;28;20063;-45
2021/03/06 12:10:30;;;;;;;6.57;3.47;;;;;;;;;;5040558;28;20108;-45
2021/03/06 12:12:56;;;;;;;7.20;3.60;;;;;;;;;;5040893;28;20090;-45
2021/03/06 12:15:23;;;;;;;7.75;4.03;;;;;;;;;;5041950;28;20370;-45
2021/03/06 12:17:49;;;;;;;8.23;3.92;;;;;;;;;;5043536;28;20061;-45
2021/03/06 12:20:15;;;;;;;10.68;3.95;;;;;;;;;;5039506;28;20125;-45
2021/03/06 12:22:42;;;;;;;8.30;3.90;;;;;;;;;;5040189;28;20076;-45
2021/03/06 12:25:08;;;;;;;9.55;2.78;;;;;;;;;;5044872;28;20035;-47
2021/03/06 12:27:35;;;;;;;6.18;3.22;;;;;;;;;;5038759;28;20045;-45
2021/03/06 12:30:01;;;;;;;15.52;3.65;;;;;;;;;;5041587;28;20090;-45
2021/03/06 12:32:27;;;;;;;7.45;3.53;;;;;;;;;;5046163;28;20022;-45
2021/03/06 12:34:53;;;;;;;8.57;3.35;;;;;;;;;;5033989;28;20099;-45
2021/03/06 12:37:19;;;;;;;6.88;2.97;;;;;;;;;;5041370;28;20020;-45
2021/03/06 12:39:45;;;;;;;7.00;3.38;;;;;;;;;;5040379;28;20462;-45
2021/03/06 12:42:11;;;;;;;7.53;3.30;;;;;;;;;;5041980;28;20025;-45
2021/03/06 12:44:37;;;;;;;15.40;4.63;;;;;;;;;;5036775;28;20028;-45
2021/03/06 12:47:03;;;;;;;10.32;4.03;;;;;;;;;;5040982;28;20397;-45
2021/03/06 12:49:28;;;;;;;7.45;3.40;;;;;;;;;;5045113;28;20024;-45
2021/03/06 12:51:54;;;;;;;9.75;3.60;;;;;;;;;;5034147;28;20045;-45
2021/03/06 12:54:22;;;;;;;8.18;3.28;;;;;;;;;;5044396;28;20339;-45
2021/03/06 12:56:48;;;;;;;11.10;3.50;;;;;;;;;;5044455;28;20175;-45
2021/03/06 12:59:14;;;;;;;7.40;3.70;;;;;;;;;;5036045;28;20462;-45
2021/03/06 13:01:40;;;;;;;7.15;3.47;;;;;;;;;;5040153;28;20473;-45
2021/03/06 13:04:06;;;;;;;11.32;3.53;;;;;;;;;;5046512;28;20135;-47
2021/03/06 13:06:32;;;;;;;7.80;3.03;;;;;;;;;;5036329;28;20116;-45
2021/03/06 13:08:58;;;;;;;7.30;2.92;;;;;;;;;;5045964;28;20028;-46
2021/03/06 13:11:24;;;;;;;8.65;3.25;;;;;;;;;;5049633;28;20056;-45
2021/03/06 13:13:50;;;;;;;8.38;3.50;;;;;;;;;;5036706;28;20084;-45
2021/03/06 13:16:16;;;;;;;7.40;3.22;;;;;;;;;;5043856;28;20575;-45
2021/03/06 13:18:42;;;;;;;10.80;4.20;;;;;;;;;;5047480;28;20151;-45
2021/03/06 13:21:08;;;;;;;9.63;3.38;;;;;;;;;;5038465;28;20354;-45
2021/03/06 13:23:34;;;;;;;9.05;3.75;;;;;;;;;;5033318;28;20036;-45
2021/03/06 13:26:00;;;;;;;8.45;3.30;;;;;;;;;;5049058;28;20487;-45
2021/03/06 13:28:26;;;;;;;11.88;3.03;;;;;;;;;;5048259;28;20397;-45
2021/03/06 13:30:52;;;;;;;9.25;3.47;;;;;;;;;;5039336;28;20067;-47
2021/03/06 13:33:18;;;;;;;6.72;3.15;;;;;;;;;;5035958;28;20029;-45
2021/03/06 13:35:44;;;;;;;8.70;3.00;;;;;;;;;;5037421;28;20111;-45
2021/03/06 13:38:10;;;;;;;8.75;3.17;;;;;;;;;;5039323;28;20020;-45
2021/03/06 13:40:36;;;;;;;9.55;3.50;;;;;;;;;;5049624;28;20028;-45
2021/03/06 13:43:02;;;;;;;8.75;3.20;;;;;;;;;;5036253;28;20145;-45
2021/03/06 13:45:28;;;;;;;8.32;3.00;;;;;;;;;;5042580;28;20537;-45
2021/03/06 13:47:54;;;;;;;7.88;3.40;;;;;;;;;;5052026;28;20025;-45
2021/03/06 13:50:20;;;;;;;7.65;3.17;;;;;;;;;;5052378;28;20602;-45
2021/03/06 13:52:46;;;;;;;9.65;3.42;;;;;;;;;;5035780;28;20047;-45
2021/03/06 13:55:13;;;;;;;7.20;2.80;;;;;;;;;;5046645;28;20112;-45
2021/03/06 13:57:39;;;;;;;10.32;3.25;;;;;;;;;;5046187;28;20460;-45
2021/03/06 14:00:06;;;;;;;6.22;3.50;;;;;;;;;;5042415;28;20022;-46
2021/03/06 14:02:32;;;;;;;8.82;3.22;;;;;;;;;;5043626;28;20120;-46
2021/03/06 14:04:58;;;;;;;6.72;3.13;;;;;;;;;;5046370;28;20492;-45
2021/03/06 14:07:24;;;;;;;6.50;2.80;;;;;;;;;;5045627;28;20021;-46
2021/03/06 14:09:50;;;;;;;7.05;3.10;;;;;;;;;;5036353;28;20448;-46
2021/03/06 14:12:16;;;;;;;9.30;3.47;;;;;;;;;;5041699;28;20059;-45
2021/03/06 14:14:42;;;;;;;8.23;3.75;;;;;;;;;;5042407;28;20029;-47
2021/03/06 14:17:08;;;;;;;10.10;3.40;;;;;;;;;;5036892;28;20397;-45
2021/03/06 14:19:34;;;;;;;5.25;3.35;;;;;;;;;;5042166;28;20029;-45
2021/03/06 14:22:00;;;;;;;7.38;3.40;;;;;;;;;;5042665;28;20029;-46
2021/03/06 14:24:26;;;;;;;8.07;3.78;;;;;;;;;;5033316;28;20373;-45
2021/03/06 14:26:52;;;;;;;5.88;2.78;;;;;;;;;;5042711;28;20037;-46
2021/03/06 14:29:18;;;;;;;7.82;3.28;;;;;;;;;;5033016;28;20544;-45
2021/03/06 14:31:44;;;;;;;6.85;3.35;;;;;;;;;;5042046;28;20112;-46
2021/03/06 14:34:10;;;;;;;7.60;3.00;;;;;;;;;;5036596;28;20057;-45
2021/03/06 14:36:37;;;;;;;11.18;3.53;;;;;;;;;;5042292;28;20037;-45
2021/03/06 14:39:10;;;;;;;7.20;3.35;;;;;;;;;;5041918;28;20086;-45
2021/03/06 14:41:36;;;;;;;6.40;3.03;;;;;;;;;;5046487;28;20125;-46
2021/03/06 14:44:02;;;;;;;5.75;3.17;;;;;;;;;;5045543;28;20082;-45